Terminal Aerodrome Forecast
Issued by NWS

Home | Current Version | Previous Version | Text Only | Print | Product List | Glossary On
Versions: 1 2 3 4 5 6 7 8 9 10 11 12 13 14
000
FTUS43 KDLH 152320
TAFHYR
TAF
KHYR 152320Z 1600/1624 VRB03KT P6SM BKN250
     FM160500 VRB02KT P6SM SCT250
     FM161900 23010KT P6SM FEW250=

USA.gov is the U.S. government's official web portal to all federal, state and local government web resources and services.